Time;durP1;ratioP1;P1;durP2;ratioP2;P2;SDS_P1;SDS_P2;PMS_P1;PMS_P2;Temp;Humidity;BMP_temperature;BMP_pressure;BME280_temperature;BME280_humidity;BME280_pressure;Samples;Min_cycle;Max_cycle;Signal;HPM_P1;HPM_P2
2023/03/18 05:02:05;;;;;;;4.80;2.55;;;9.30;99.90;;;;;;5188928;23;20339;-67
2023/03/18 05:04:32;;;;;;;3.35;3.15;;;9.30;99.90;;;;;;4953059;29;20268;-67
2023/03/18 05:06:59;;;;;;;5.65;3.28;;;9.30;99.90;;;;;;4945340;28;20232;-67
2023/03/18 05:09:26;;;;;;;3.58;3.28;;;9.30;99.90;;;;;;4949583;29;20198;-67
2023/03/18 05:11:53;;;;;;;1.98;1.88;;;9.30;99.90;;;;;;4942517;28;22140;-67
2023/03/18 05:14:20;;;;;;;2.58;2.47;;;9.30;99.90;;;;;;4945350;28;20213;-67
2023/03/18 05:16:47;;;;;;;3.63;3.30;;;9.30;99.90;;;;;;4952187;23;20237;-68
2023/03/18 05:19:15;;;;;;;2.85;2.75;;;9.20;99.90;;;;;;4936242;29;20225;-68
2023/03/18 05:21:42;;;;;;;4.65;4.18;;;9.20;99.90;;;;;;4935131;29;20206;-67
2023/03/18 05:24:09;;;;;;;3.40;1.73;;;9.20;99.90;;;;;;4929264;29;20253;-68
2023/03/18 05:26:37;;;;;;;2.40;2.33;;;9.30;99.90;;;;;;4920005;29;20325;-68
2023/03/18 05:29:04;;;;;;;4.75;3.30;;;9.30;99.90;;;;;;4916069;29;20226;-68
2023/03/18 05:31:31;;;;;;;4.05;3.75;;;9.30;99.90;;;;;;4910675;29;20283;-67
2023/03/18 05:33:57;;;;;;;2.38;2.28;;;9.30;99.90;;;;;;4908278;29;20262;-68
2023/03/18 05:36:25;;;;;;;8.77;3.83;;;9.30;99.90;;;;;;4911588;29;20305;-68
2023/03/18 05:38:52;;;;;;;3.10;2.80;;;9.30;99.90;;;;;;4913641;29;20293;-69
2023/03/18 05:41:19;;;;;;;2.70;1.83;;;9.20;99.90;;;;;;4914797;29;20568;-67
2023/03/18 05:43:46;;;;;;;8.30;3.80;;;9.20;99.90;;;;;;4905960;29;20234;-68
2023/03/18 05:46:13;;;;;;;4.13;2.65;;;9.20;99.90;;;;;;4908998;29;20319;-68
2023/03/18 05:48:40;;;;;;;5.15;4.45;;;9.20;99.90;;;;;;4915872;29;20656;-67
2023/03/18 05:51:07;;;;;;;3.17;2.97;;;9.20;99.90;;;;;;4907960;29;20326;-68
2023/03/18 05:53:35;;;;;;;8.00;2.80;;;9.30;99.90;;;;;;4913513;29;20210;-68
2023/03/18 05:56:01;;;;;;;3.35;3.25;;;9.20;99.90;;;;;;4913503;29;20234;-68
2023/03/18 05:58:30;;;;;;;3.80;3.40;;;9.20;99.90;;;;;;4909765;29;20207;-68
2023/03/18 06:00:57;;;;;;;4.20;4.00;;;9.30;99.90;;;;;;4907896;29;20294;-67
2023/03/18 06:03:24;;;;;;;7.22;3.55;;;9.30;99.90;;;;;;4911873;29;20211;-66
2023/03/18 06:05:51;;;;;;;4.28;3.60;;;9.30;99.90;;;;;;4907269;29;20241;-67
2023/03/18 06:08:17;;;;;;;10.52;4.55;;;9.30;99.90;;;;;;4906806;29;20224;-68
2023/03/18 06:10:45;;;;;;;4.60;4.20;;;9.30;99.90;;;;;;4908826;29;20658;-67
2023/03/18 06:13:12;;;;;;;7.93;4.78;;;9.30;99.90;;;;;;4905090;29;20358;-68
2023/03/18 06:15:39;;;;;;;7.85;4.07;;;9.40;99.90;;;;;;4900893;29;20242;-68
2023/03/18 06:18:05;;;;;;;6.25;4.28;;;9.40;99.90;;;;;;4903506;29;20214;-67
2023/03/18 06:20:32;;;;;;;3.42;3.20;;;9.40;99.90;;;;;;4906412;29;20231;-68
2023/03/18 06:22:59;;;;;;;11.95;4.18;;;9.50;99.90;;;;;;4912429;29;20214;-67
2023/03/18 06:25:25;;;;;;;10.18;4.68;;;9.50;99.90;;;;;;4905385;29;20203;-68
2023/03/18 06:27:54;;;;;;;4.22;3.47;;;9.60;99.90;;;;;;4908898;29;20274;-66
2023/03/18 06:30:20;;;;;;;5.18;4.72;;;9.60;99.90;;;;;;4912848;29;20624;-66
2023/03/18 06:32:47;;;;;;;3.92;3.67;;;9.60;99.90;;;;;;4907244;29;20275;-67
2023/03/18 06:35:15;;;;;;;5.40;4.40;;;9.60;99.90;;;;;;4911996;29;20580;-67
2023/03/18 06:37:42;;;;;;;5.15;4.28;;;9.60;99.90;;;;;;4910120;29;20310;-67
2023/03/18 06:40:11;;;;;;;5.22;4.90;;;9.60;99.90;;;;;;4913244;29;20227;-67
2023/03/18 06:42:38;;;;;;;5.75;5.45;;;9.70;99.90;;;;;;4900582;29;20627;-67
2023/03/18 06:45:07;;;;;;;4.20;3.78;;;9.70;99.90;;;;;;4910402;29;20297;-67
2023/03/18 06:47:34;;;;;;;5.90;5.35;;;9.70;99.90;;;;;;4906180;29;20629;-67
2023/03/18 06:50:01;;;;;;;5.90;5.40;;;9.70;99.90;;;;;;4911989;29;20297;-67
2023/03/18 06:52:29;;;;;;;5.55;4.20;;;9.70;99.90;;;;;;4907023;29;20205;-67
2023/03/18 06:54:55;;;;;;;4.93;4.45;;;9.70;99.90;;;;;;4905939;29;20215;-67
2023/03/18 06:57:22;;;;;;;3.97;3.67;;;9.70;99.90;;;;;;4907225;29;20227;-68
2023/03/18 06:59:49;;;;;;;13.25;5.20;;;9.80;99.90;;;;;;4912555;29;20605;-67
2023/03/18 07:02:17;;;;;;;3.95;3.60;;;9.80;99.90;;;;;;4902858;29;20294;-66
2023/03/18 07:04:44;;;;;;;6.80;5.45;;;9.90;99.90;;;;;;4905846;29;20207;-67
2023/03/18 07:07:11;;;;;;;9.73;5.35;;;10.00;99.90;;;;;;4908534;29;20235;-67
2023/03/18 07:09:38;;;;;;;8.95;4.40;;;10.00;99.90;;;;;;4911598;29;20302;-68
2023/03/18 07:12:06;;;;;;;7.18;4.40;;;10.10;99.90;;;;;;4903207;29;20234;-67
2023/03/18 07:14:33;;;;;;;5.85;5.25;;;10.10;99.90;;;;;;4906164;29;20241;-68
2023/03/18 07:16:59;;;;;;;6.00;5.10;;;10.10;99.90;;;;;;4903834;29;20234;-68
2023/03/18 07:19:28;;;;;;;6.47;5.43;;;10.10;99.90;;;;;;4907158;29;20231;-67
2023/03/18 07:21:55;;;;;;;5.38;4.82;;;10.20;99.90;;;;;;4911827;29;20671;-67
2023/03/18 07:24:22;;;;;;;5.53;4.78;;;10.20;99.90;;;;;;4896991;29;20215;-67
2023/03/18 07:26:50;;;;;;;8.77;4.07;;;10.30;99.90;;;;;;4911114;29;20230;-69
2023/03/18 07:29:17;;;;;;;9.52;4.80;;;10.40;99.90;;;;;;4905268;29;20302;-68
2023/03/18 07:31:44;;;;;;;7.20;4.88;;;10.50;99.90;;;;;;4908573;29;20221;-68
2023/03/18 07:34:11;;;;;;;5.30;4.80;;;10.50;99.90;;;;;;4903043;29;20207;-67
2023/03/18 07:36:40;;;;;;;5.93;5.32;;;10.60;99.90;;;;;;4904769;29;20937;-67
2023/03/18 07:39:09;;;;;;;6.47;5.93;;;10.80;99.90;;;;;;4911475;29;20235;-67
2023/03/18 07:41:35;;;;;;;19.03;7.13;;;11.00;99.90;;;;;;4911323;29;20261;-67
2023/03/18 09:52:02;;;;;;;6.27;4.27;;;14.40;99.90;;;;;;4927335;29;20561;-68
2023/03/18 09:54:35;;;;;;;5.00;4.50;;;14.50;99.90;;;;;;4938923;29;20465;-68
2023/03/18 09:57:03;;;;;;;3.50;3.17;;;14.50;99.90;;;;;;4938034;28;20559;-68
2023/03/18 09:59:38;;;;;;;4.30;4.00;;;14.50;99.90;;;;;;4933575;29;20493;-68
2023/03/18 10:02:15;;;;;;;9.63;4.77;;;14.50;99.90;;;;;;4948483;29;20495;-68
2023/03/18 10:04:47;;;;;;;5.23;4.37;;;14.50;99.90;;;;;;4923299;29;20469;-68
2023/03/18 10:07:19;;;;;;;4.63;4.20;;;14.60;99.90;;;;;;4925997;29;20968;-68
2023/03/18 10:09:50;;;;;;;5.57;3.40;;;14.70;99.90;;;;;;4941661;29;20573;-68
2023/03/18 10:12:27;;;;;;;11.03;3.90;;;14.80;99.90;;;;;;4933370;29;20469;-69
2023/03/18 10:15:05;;;;;;;4.10;3.40;;;14.80;99.90;;;;;;4930503;29;20465;-69
2023/03/18 10:17:37;;;;;;;4.17;3.87;;;14.80;99.90;;;;;;4926670;29;20525;-68
2023/03/18 10:20:15;;;;;;;3.50;3.20;;;14.80;99.90;;;;;;4922954;29;20494;-68
2023/03/18 10:22:54;;;;;;;3.60;3.40;;;14.70;99.90;;;;;;4931122;29;20480;-68
2023/03/18 10:25:26;;;;;;;3.93;3.67;;;14.70;99.90;;;;;;4938117;29;20990;-67
2023/03/18 10:28:04;;;;;;;5.53;5.13;;;14.70;99.90;;;;;;4942783;28;20500;-67
2023/03/18 10:30:46;;;;;;;5.47;4.20;;;14.70;99.90;;;;;;4928434;29;20504;-68
2023/03/18 10:33:21;;;;;;;5.40;4.90;;;14.70;99.90;;;;;;4937504;28;20650;-68
2023/03/18 10:35:53;;;;;;;4.67;4.33;;;14.70;99.90;;;;;;4937024;28;20560;-67
2023/03/18 10:38:25;;;;;;;5.53;3.33;;;14.70;99.90;;;;;;4931078;29;20481;-67
2023/03/18 10:40:53;;;;;;;7.20;4.67;;;14.70;99.90;;;;;;4929757;29;20506;-68
2023/03/18 10:43:23;;;;;;;4.03;3.57;;;14.80;99.90;;;;;;4923067;29;20470;-68
2023/03/18 10:45:59;;;;;;;5.93;4.97;;;14.80;99.90;;;;;;4931216;29;20525;-68
2023/03/18 10:48:30;;;;;;;6.80;4.60;;;14.90;99.90;;;;;;4932576;29;20915;-67
2023/03/18 10:51:07;;;;;;;4.47;4.07;;;15.10;99.90;;;;;;4933773;29;20497;-68
2023/03/18 10:53:42;;;;;;;4.97;4.67;;;15.30;99.90;;;;;;4931204;28;20990;-66
2023/03/18 10:56:10;;;;;;;4.57;4.23;;;15.40;99.90;;;;;;4922618;29;20498;-69
2023/03/18 10:58:38;;;;;;;6.03;3.17;;;15.60;99.90;;;;;;4938314;29;20536;-67
2023/03/18 11:01:07;;;;;;;7.43;6.80;;;15.70;99.90;;;;;;4952576;28;20492;-67
2023/03/18 11:03:39;;;;;;;4.33;4.00;;;15.70;99.90;;;;;;4928411;28;20556;-67
2023/03/18 11:06:15;;;;;;;3.60;3.40;;;15.80;99.90;;;;;;4931990;29;20480;-67
2023/03/18 11:08:47;;;;;;;4.50;4.13;;;15.80;99.90;;;;;;4931243;29;20469;-67
2023/03/18 11:11:16;;;;;;;3.50;3.20;;;15.90;99.90;;;;;;4926088;29;20478;-66
2023/03/18 11:13:49;;;;;;;3.57;3.37;;;15.90;99.90;;;;;;4929928;29;20470;-66
2023/03/18 11:16:24;;;;;;;3.93;3.63;;;15.80;99.90;;;;;;4924769;29;20532;-67
2023/03/18 11:18:53;;;;;;;3.67;3.50;;;15.70;99.90;;;;;;4925778;29;20507;-67
2023/03/18 11:21:20;;;;;;;3.53;3.20;;;15.70;99.90;;;;;;4932356;29;20501;-67
2023/03/18 11:24:09;;;;;;;3.30;3.10;;;15.70;99.90;;;;;;4929605;29;20546;-67
2023/03/18 11:26:52;;;;;;;4.50;2.90;;;15.70;99.90;;;;;;4927575;29;20847;-67
2023/03/18 11:29:23;;;;;;;3.53;3.23;;;15.70;99.90;;;;;;4932234;29;20803;-68
2023/03/18 11:31:53;;;;;;;4.67;4.27;;;15.70;99.90;;;;;;4932341;29;20850;-67
2023/03/18 11:34:21;;;;;;;5.17;4.67;;;15.70;99.90;;;;;;4926819;29;20500;-68
2023/03/18 11:36:57;;;;;;;6.77;6.10;;;15.70;99.90;;;;;;4928089;29;20496;-67
2023/03/18 11:39:28;;;;;;;9.90;7.80;;;15.80;99.90;;;;;;4922823;29;20466;-67
2023/03/18 11:41:54;;;;;;;4.60;4.20;;;15.90;99.90;;;;;;4931455;29;20501;-67
2023/03/18 11:44:28;;;;;;;3.13;3.03;;;16.00;99.90;;;;;;4936023;29;20481;-67
2023/03/18 11:47:01;;;;;;;3.10;2.90;;;16.00;99.90;;;;;;4924757;29;20504;-67
2023/03/18 11:49:30;;;;;;;8.43;4.53;;;16.10;99.90;;;;;;4934636;29;20503;-66
2023/03/18 11:52:24;;;;;;;2.70;2.60;;;16.10;99.90;;;;;;4935176;29;20985;-67
2023/03/18 11:55:18;;;;;;;2.30;2.20;;;16.10;99.90;;;;;;4935020;29;20470;-67
2023/03/18 11:58:21;;;;;;;2.77;2.60;;;16.20;99.90;;;;;;4933073;29;20492;-67
2023/03/18 12:00:55;;;;;;;2.40;2.20;;;16.10;99.90;;;;;;4924699;29;20498;-67
2023/03/18 12:04:04;;;;;;;1.80;1.80;;;16.20;99.90;;;;;;4940514;28;20933;-67
2023/03/18 12:06:37;;;;;;;2.43;2.33;;;16.30;99.90;;;;;;4898940;29;20983;-68
2023/03/18 12:09:09;;;;;;;2.10;2.00;;;16.30;99.90;;;;;;4946225;29;20516;-67
2023/03/18 12:11:52;;;;;;;1.67;1.27;;;16.30;99.90;;;;;;4941381;28;20458;-67
2023/03/18 12:14:26;;;;;;;1.90;1.17;;;16.30;99.90;;;;;;4923331;29;21029;-67
2023/03/18 12:17:02;;;;;;;1.00;1.00;;;16.30;99.90;;;;;;4929398;29;20462;-68
2023/03/18 12:19:50;;;;;;;2.07;1.77;;;16.30;99.90;;;;;;4926822;29;20887;-68
2023/03/18 12:22:39;;;;;;;1.80;1.17;;;16.20;99.90;;;;;;4924154;29;20977;-69
2023/03/18 12:25:29;;;;;;;1.60;0.90;;;16.30;99.90;;;;;;4915825;29;20471;-68
2023/03/18 12:28:03;;;;;;;1.77;1.67;;;16.30;99.90;;;;;;4920647;29;20473;-68
2023/03/18 12:30:53;;;;;;;1.60;1.60;;;16.20;99.90;;;;;;4927539;29;20864;-67
2023/03/18 12:33:41;;;;;;;1.90;1.80;;;16.20;99.90;;;;;;4929573;29;20775;-67
2023/03/18 12:36:20;;;;;;;1.33;1.10;;;16.20;99.90;;;;;;4922522;29;20843;-67
2023/03/18 12:39:29;;;;;;;0.80;0.80;;;16.10;99.90;;;;;;4924856;29;20859;-67
2023/03/18 12:42:03;;;;;;;0.50;0.50;;;16.00;99.90;;;;;;4914395;29;20505;-67
2023/03/18 12:44:46;;;;;;;0.40;0.40;;;16.00;99.90;;;;;;4927467;29;20470;-67
2023/03/18 12:47:18;;;;;;;0.60;0.60;;;16.10;99.90;;;;;;4932850;29;20473;-68
2023/03/18 12:49:49;;;;;;;1.07;0.87;;;16.10;99.90;;;;;;4927553;29;20860;-67
2023/03/18 12:52:24;;;;;;;1.70;1.10;;;16.10;99.90;;;;;;4929500;29;20886;-67
2023/03/18 12:54:59;;;;;;;0.90;0.87;;;16.20;99.90;;;;;;4932250;29;20520;-67
2023/03/18 12:57:35;;;;;;;1.67;1.67;;;16.10;99.90;;;;;;4924773;29;20957;-67
2023/03/18 13:00:09;;;;;;;0.73;0.73;;;16.10;99.90;;;;;;4931728;29;20492;-68
2023/03/18 13:02:44;;;;;;;1.35;1.35;;;16.10;99.90;;;;;;4927669;29;20536;-68
2023/03/18 13:05:23;;;;;;;1.27;1.23;;;16.10;99.90;;;;;;4929595;29;20194;-67
2023/03/18 13:07:59;;;;;;;1.30;1.30;;;16.00;99.90;;;;;;4917115;29;20990;-66
2023/03/18 13:10:30;;;;;;;1.07;1.07;;;16.00;99.90;;;;;;4917004;29;20500;-67
2023/03/18 13:12:59;;;;;;;1.90;1.50;;;16.00;99.90;;;;;;4921634;29;20477;-67
2023/03/18 13:15:31;;;;;;;1.87;1.77;;;16.00;99.90;;;;;;4934259;29;20510;-67
2023/03/18 13:18:04;;;;;;;1.70;1.70;;;16.10;99.90;;;;;;4926371;29;20494;-67
2023/03/18 13:20:34;;;;;;;4.33;2.13;;;16.20;99.90;;;;;;4917320;29;20598;-68
2023/03/18 13:23:20;;;;;;;3.20;3.00;;;16.30;99.90;;;;;;4921283;29;20485;-68
2023/03/18 13:25:57;;;;;;;3.53;3.23;;;16.30;99.90;;;;;;4924937;29;20952;-67
2023/03/18 13:28:41;;;;;;;2.80;2.60;;;16.40;99.90;;;;;;4916849;29;20481;-68
2023/03/18 13:31:19;;;;;;;1.93;1.83;;;16.40;99.90;;;;;;4917066;29;20630;-67
2023/03/18 13:34:17;;;;;;;3.90;2.23;;;16.50;99.90;;;;;;4927209;29;20473;-67
2023/03/18 13:37:26;;;;;;;2.57;2.37;;;16.50;99.90;;;;;;4932318;29;20466;-67
2023/03/18 13:40:23;;;;;;;1.20;1.20;;;16.50;99.90;;;;;;4935822;29;20867;-68
2023/03/18 13:42:51;;;;;;;1.23;0.77;;;16.50;99.90;;;;;;4935827;29;20489;-67
2023/03/18 13:45:26;;;;;;;1.00;1.00;;;16.50;99.90;;;;;;4930678;29;20497;-68
2023/03/18 13:48:01;;;;;;;1.20;1.20;;;16.50;99.90;;;;;;4917007;29;20454;-68
2023/03/18 13:50:33;;;;;;;1.83;1.70;;;16.50;99.90;;;;;;4916219;29;20580;-68
2023/03/18 13:53:02;;;;;;;0.97;0.97;;;16.50;99.90;;;;;;4920004;29;20516;-66
2023/03/18 13:55:33;;;;;;;2.63;1.20;;;16.60;99.90;;;;;;4929221;29;20462;-67
2023/03/18 13:58:19;;;;;;;0.77;0.77;;;16.60;99.90;;;;;;4916385;29;20904;-68
2023/03/18 14:01:07;;;;;;;0.90;0.90;;;16.50;99.90;;;;;;4933505;29;20492;-67
2023/03/18 14:03:53;;;;;;;2.27;0.80;;;16.50;99.90;;;;;;4943278;28;20470;-68
2023/03/18 14:06:23;;;;;;;0.93;0.93;;;16.50;99.90;;;;;;4928265;29;20450;-66
2023/03/18 14:08:51;;;;;;;1.37;1.37;;;16.50;99.90;;;;;;4935289;29;20470;-66
2023/03/18 14:11:46;;;;;;;1.00;0.90;;;16.50;99.90;;;;;;4935247;29;20934;-66
2023/03/18 14:14:53;;;;;;;1.23;1.23;;;16.60;99.90;;;;;;4933162;29;20835;-67
2023/03/18 14:17:26;;;;;;;0.60;0.60;;;16.60;99.90;;;;;;4916341;29;20478;-67
2023/03/18 14:19:56;;;;;;;1.07;1.07;;;16.70;99.90;;;;;;4916296;29;20498;-67
2023/03/18 14:22:29;;;;;;;1.63;1.20;;;16.70;99.90;;;;;;4915362;29;20522;-66
2023/03/18 14:25:22;;;;;;;1.03;1.03;;;16.70;99.90;;;;;;4944268;29;20465;-67
2023/03/18 14:27:52;;;;;;;0.83;0.83;;;16.70;99.90;;;;;;4921638;28;20592;-67
2023/03/18 14:30:44;;;;;;;1.00;1.00;;;16.60;99.90;;;;;;4914980;29;20490;-67
2023/03/18 14:33:34;;;;;;;2.00;1.80;;;16.60;99.90;;;;;;4920277;29;20481;-67
2023/03/18 14:36:05;;;;;;;1.90;1.00;;;16.50;99.90;;;;;;4924852;29;20465;-67
2023/03/18 14:38:38;;;;;;;1.30;1.30;;;16.50;99.90;;;;;;4915304;29;20455;-67
2023/03/18 14:41:14;;;;;;;2.77;2.00;;;16.50;99.90;;;;;;4915170;29;20584;-66
2023/03/18 14:43:51;;;;;;;1.63;1.63;;;16.50;99.90;;;;;;4922309;29;20469;-67
2023/03/18 14:46:23;;;;;;;2.17;2.07;;;16.50;99.90;;;;;;4922749;29;20553;-67
2023/03/18 14:48:52;;;;;;;2.53;2.43;;;16.60;99.90;;;;;;4915684;29;20497;-67
2023/03/18 14:51:22;;;;;;;1.23;1.23;;;16.60;99.90;;;;;;4914895;29;20498;-67
2023/03/18 14:53:53;;;;;;;1.90;1.80;;;16.60;99.90;;;;;;4923279;29;20532;-67
2023/03/18 14:56:22;;;;;;;3.07;2.37;;;16.60;99.90;;;;;;4921891;29;20466;-67
2023/03/18 14:58:52;;;;;;;4.20;3.90;;;16.60;99.90;;;;;;4914824;29;20467;-67
2023/03/18 15:01:23;;;;;;;3.03;2.60;;;16.60;99.90;;;;;;4915297;29;20540;-66
2023/03/18 15:03:53;;;;;;;4.17;1.33;;;16.60;99.90;;;;;;4923647;29;20473;-68
2023/03/18 15:06:25;;;;;;;4.70;3.43;;;16.60;99.90;;;;;;4921289;29;20549;-67
2023/03/18 15:08:58;;;;;;;1.97;1.87;;;16.50;99.90;;;;;;4915551;29;20470;-67
2023/03/18 15:11:25;;;;;;;1.87;1.80;;;16.50;99.90;;;;;;4915135;29;20498;-67
2023/03/18 15:13:54;;;;;;;4.73;2.20;;;16.50;99.90;;;;;;4923652;29;20478;-68
2023/03/18 15:16:23;;;;;;;1.47;1.40;;;16.50;99.90;;;;;;4923415;29;20867;-67
2023/03/18 15:18:53;;;;;;;7.13;2.53;;;16.40;99.90;;;;;;4932989;29;20473;-69
2023/03/18 15:21:26;;;;;;;1.73;1.73;;;16.40;99.90;;;;;;4914832;29;20497;-68
2023/03/18 15:23:55;;;;;;;2.60;2.20;;;16.40;99.90;;;;;;4920463;29;20548;-68
2023/03/18 15:26:23;;;;;;;1.50;1.50;;;16.40;99.90;;;;;;4915770;29;20598;-68
2023/03/18 15:28:55;;;;;;;3.03;2.67;;;16.40;99.90;;;;;;4933189;29;20468;-69
2023/03/18 15:31:26;;;;;;;2.07;2.00;;;16.40;99.90;;;;;;4914918;29;20509;-68
2023/03/18 15:34:05;;;;;;;7.10;6.40;;;16.40;99.90;;;;;;4914523;29;20816;-68
2023/03/18 15:36:40;;;;;;;1.80;1.80;;;16.40;99.90;;;;;;4939106;29;20477;-67
2023/03/18 15:39:20;;;;;;;4.07;3.77;;;16.40;99.90;;;;;;4940334;29;20955;-67
2023/03/18 15:41:51;;;;;;;4.93;3.90;;;16.40;99.90;;;;;;4925341;29;20470;-67
2023/03/18 15:44:24;;;;;;;2.70;2.50;;;16.30;99.90;;;;;;4913823;29;20467;-68
2023/03/18 15:46:53;;;;;;;1.93;1.83;;;16.30;99.90;;;;;;4918493;29;20485;-67
2023/03/18 15:49:26;;;;;;;2.13;2.00;;;16.20;99.90;;;;;;4928929;29;20482;-67
2023/03/18 15:51:59;;;;;;;4.80;1.60;;;16.10;99.90;;;;;;4952538;23;21033;-68
2023/03/18 15:54:28;;;;;;;3.20;3.00;;;16.00;99.90;;;;;;4943496;29;20479;-68
2023/03/18 15:57:00;;;;;;;1.20;1.20;;;15.90;99.90;;;;;;4940078;29;20508;-68
2023/03/18 15:59:28;;;;;;;1.53;1.53;;;15.90;99.90;;;;;;4927864;29;20475;-68
2023/03/18 16:01:55;;;;;;;4.53;3.13;;;15.80;99.90;;;;;;4918645;29;20491;-68
2023/03/18 16:04:23;;;;;;;2.67;1.87;;;15.80;99.90;;;;;;4899432;29;20820;-68
2023/03/18 16:06:51;;;;;;;2.20;2.10;;;15.70;99.90;;;;;;4914351;29;20470;-68
2023/03/18 16:09:20;;;;;;;2.33;2.23;;;15.70;99.90;;;;;;4925795;29;20462;-68
2023/03/18 16:11:50;;;;;;;2.10;2.07;;;15.70;99.90;;;;;;4926045;29;20999;-68
2023/03/18 16:14:19;;;;;;;2.37;2.17;;;15.60;99.90;;;;;;4902740;29;20463;-68
2023/03/18 16:16:46;;;;;;;2.83;2.63;;;15.60;99.90;;;;;;4897809;29;20485;-68
2023/03/18 16:19:15;;;;;;;2.63;2.43;;;15.50;99.90;;;;;;4899701;29;20843;-68
2023/03/18 16:21:42;;;;;;;3.03;2.83;;;15.50;99.90;;;;;;4899474;29;20495;-68
2023/03/18 16:24:10;;;;;;;3.00;2.67;;;15.40;99.90;;;;;;4908519;29;20466;-68
2023/03/18 16:26:38;;;;;;;3.00;2.90;;;15.40;99.90;;;;;;4927883;29;20465;-69
2023/03/18 16:29:16;;;;;;;2.27;2.17;;;15.40;99.90;;;;;;4937332;29;20466;-68
2023/03/18 16:31:43;;;;;;;6.73;3.17;;;15.40;99.90;;;;;;4931030;29;21228;-68
2023/03/18 16:34:14;;;;;;;4.40;2.00;;;15.30;99.90;;;;;;4901906;29;20458;-70
2023/03/18 16:36:42;;;;;;;3.07;2.87;;;15.30;99.90;;;;;;4917723;29;20963;-68
2023/03/18 16:39:15;;;;;;;6.67;3.03;;;15.20;99.90;;;;;;4918198;29;20474;-68
2023/03/18 16:41:43;;;;;;;4.27;3.13;;;15.20;99.90;;;;;;4916658;29;20506;-68
2023/03/18 16:44:13;;;;;;;2.80;2.50;;;15.20;99.90;;;;;;4901300;29;20537;-68
2023/03/18 16:46:42;;;;;;;2.90;2.30;;;15.10;99.90;;;;;;4917770;29;20470;-69
2023/03/18 16:49:14;;;;;;;3.10;2.07;;;15.10;99.90;;;;;;4917603;29;20455;-69
2023/03/18 16:51:41;;;;;;;1.83;1.83;;;15.00;99.90;;;;;;4914300;29;21147;-69
2023/03/18 16:54:17;;;;;;;2.93;2.77;;;14.90;99.90;;;;;;4908647;29;20474;-69
2023/03/18 16:56:46;;;;;;;3.87;2.20;;;14.90;99.90;;;;;;4917533;29;20465;-69
2023/03/18 16:59:14;;;;;;;3.50;2.63;;;14.80;99.90;;;;;;4920379;29;20804;-68
2023/03/18 17:01:42;;;;;;;3.20;3.00;;;14.80;99.90;;;;;;4930249;29;21013;-68
2023/03/18 17:04:19;;;;;;;3.30;3.10;;;14.70;99.90;;;;;;4909544;29;20521;-68
2023/03/18 17:06:45;;;;;;;3.93;3.00;;;14.70;99.90;;;;;;4921054;29;20973;-69
2023/03/18 17:09:12;;;;;;;3.83;3.50;;;14.50;99.90;;;;;;4917397;29;20478;-69
2023/03/18 17:11:39;;;;;;;3.10;2.97;;;14.50;99.90;;;;;;4927937;29;20506;-69
2023/03/18 17:14:13;;;;;;;10.03;9.03;;;14.40;99.90;;;;;;4901693;29;20838;-69
2023/03/18 17:16:40;;;;;;;22.77;11.57;;;14.30;99.90;;;;;;4917625;29;20458;-69
2023/03/18 17:19:13;;;;;;;11.53;10.43;;;14.30;99.90;;;;;;4917436;29;20462;-69
2023/03/18 17:21:40;;;;;;;6.37;5.83;;;14.20;99.90;;;;;;4915224;29;20491;-68
2023/03/18 17:24:08;;;;;;;5.53;5.03;;;14.10;99.90;;;;;;4902112;29;20494;-69
2023/03/18 17:26:34;;;;;;;4.07;3.83;;;14.00;99.90;;;;;;4917225;29;20612;-71
2023/03/18 17:29:02;;;;;;;4.13;2.83;;;13.90;99.90;;;;;;4913947;29;20845;-68
2023/03/18 17:31:30;;;;;;;3.60;3.30;;;13.90;99.90;;;;;;4898784;29;20815;-69
2023/03/18 17:33:57;;;;;;;3.10;2.90;;;13.80;99.90;;;;;;4896962;29;20460;-69
2023/03/18 17:36:24;;;;;;;2.50;2.30;;;13.80;99.90;;;;;;4896382;29;21140;-68
2023/03/18 17:38:55;;;;;;;5.43;4.90;;;13.70;99.90;;;;;;4898084;29;20460;-69
2023/03/18 17:41:22;;;;;;;4.63;3.70;;;13.60;99.90;;;;;;4901740;29;21003;-68
2023/03/18 17:43:49;;;;;;;9.80;2.87;;;13.50;99.90;;;;;;4913769;29;20493;-69
2023/03/18 17:46:17;;;;;;;3.10;3.00;;;13.50;99.90;;;;;;4898580;29;21027;-68
2023/03/18 17:48:45;;;;;;;3.57;3.40;;;13.40;99.90;;;;;;4904142;29;20466;-69
2023/03/18 17:51:16;;;;;;;4.67;3.07;;;13.30;99.90;;;;;;4917559;29;20497;-68
2023/03/18 17:53:45;;;;;;;3.53;3.10;;;13.30;99.90;;;;;;4925650;29;20466;-69
2023/03/18 17:56:15;;;;;;;5.80;4.70;;;13.20;99.90;;;;;;4912855;29;20474;-69
2023/03/18 17:58:44;;;;;;;8.60;6.87;;;13.20;99.90;;;;;;4903125;29;20464;-71
2023/03/18 18:01:14;;;;;;;9.73;4.57;;;13.10;99.90;;;;;;4903197;29;20552;-69
2023/03/18 18:03:41;;;;;;;6.60;6.10;;;13.10;99.90;;;;;;4912509;29;20517;-70
2023/03/18 18:06:15;;;;;;;8.03;6.37;;;13.00;99.90;;;;;;4899911;29;20497;-70
2023/03/18 18:08:42;;;;;;;12.70;7.30;;;13.00;99.90;;;;;;4902391;29;20500;-69
2023/03/18 18:11:22;;;;;;;13.90;7.03;;;12.90;99.90;;;;;;4907505;29;20530;-68
2023/03/18 18:13:49;;;;;;;6.30;5.90;;;12.80;99.90;;;;;;4897801;29;20551;-68
2023/03/18 18:16:17;;;;;;;6.90;5.50;;;12.80;99.90;;;;;;4907845;29;20878;-71
2023/03/18 18:18:44;;;;;;;10.83;4.77;;;12.70;99.90;;;;;;4905301;29;20467;-70
2023/03/18 18:21:15;;;;;;;6.17;5.67;;;12.60;99.90;;;;;;4911746;29;20495;-69
2023/03/18 18:23:44;;;;;;;6.50;4.33;;;12.60;99.90;;;;;;4907816;29;20483;-69
2023/03/18 18:26:13;;;;;;;8.17;5.47;;;12.50;99.90;;;;;;4896977;29;20484;-70
2023/03/18 18:28:42;;;;;;;4.97;4.57;;;12.40;99.90;;;;;;4904902;29;20475;-71
2023/03/18 18:31:11;;;;;;;6.23;4.83;;;12.40;99.90;;;;;;4913540;29;20494;-70
2023/03/18 18:33:40;;;;;;;14.70;10.37;;;12.30;99.90;;;;;;4909393;29;20561;-72
2023/03/18 18:36:08;;;;;;;19.83;11.30;;;12.30;99.90;;;;;;4910492;29;20475;-71
2023/03/18 18:38:36;;;;;;;34.50;23.50;;;12.20;99.90;;;;;;4907033;29;20473;-74
2023/03/18 18:41:03;;;;;;;43.00;24.63;;;12.20;99.90;;;;;;4912523;29;20569;-70
2023/03/18 18:43:30;;;;;;;62.58;29.17;;;12.20;99.90;;;;;;4912587;29;20483;-69
2023/03/18 18:45:57;;;;;;;35.50;14.83;;;12.10;99.90;;;;;;4914917;29;20222;-70
2023/03/18 18:48:28;;;;;;;28.48;13.25;;;12.10;99.90;;;;;;4913748;29;20506;-70
2023/03/18 18:50:56;;;;;;;17.07;10.90;;;12.00;99.90;;;;;;4907730;29;20235;-71
2023/03/18 18:53:24;;;;;;;11.90;10.60;;;12.00;99.90;;;;;;4896268;29;20459;-71
2023/03/18 18:55:55;;;;;;;13.98;10.68;;;12.00;99.90;;;;;;4899385;29;20479;-70
2023/03/18 18:58:27;;;;;;;17.13;8.43;;;11.90;99.90;;;;;;4900872;29;20215;-69
2023/03/18 19:00:54;;;;;;;9.73;8.67;;;11.90;99.90;;;;;;4898260;29;20483;-68
2023/03/18 19:03:23;;;;;;;11.63;7.60;;;11.80;99.90;;;;;;4910358;29;20486;-69
2023/03/18 19:05:51;;;;;;;16.80;8.50;;;11.80;99.90;;;;;;4907397;29;20462;-69
2023/03/18 19:08:23;;;;;;;12.50;8.10;;;11.70;99.90;;;;;;4894670;29;20854;-68
2023/03/18 19:10:53;;;;;;;8.37;7.53;;;11.70;99.90;;;;;;4915922;29;20485;-69
2023/03/18 19:13:20;;;;;;;9.23;7.80;;;11.70;99.90;;;;;;4905993;29;20841;-69
2023/03/18 19:15:47;;;;;;;7.47;6.77;;;11.70;99.90;;;;;;4911714;29;20781;-69
2023/03/18 19:18:18;;;;;;;10.90;7.97;;;11.60;99.90;;;;;;4905108;29;20521;-69
2023/03/18 19:20:45;;;;;;;12.83;9.67;;;11.50;99.90;;;;;;4899922;29;21023;-69
2023/03/18 19:23:14;;;;;;;13.40;7.65;;;11.50;99.90;;;;;;4911989;29;20494;-70
2023/03/18 19:25:41;;;;;;;11.70;7.72;;;11.50;99.90;;;;;;4896042;29;20241;-71
2023/03/18 19:28:19;;;;;;;10.15;7.30;;;11.40;99.90;;;;;;4904052;29;20460;-70
2023/03/18 19:30:46;;;;;;;10.50;7.97;;;11.30;99.90;;;;;;4898331;29;20799;-69
2023/03/18 19:33:15;;;;;;;6.30;5.57;;;11.30;99.90;;;;;;4902702;29;20319;-73
2023/03/18 19:35:42;;;;;;;5.95;4.88;;;11.20;99.90;;;;;;4900131;29;20242;-68
2023/03/18 19:38:19;;;;;;;6.18;5.43;;;11.20;99.90;;;;;;4899506;29;20234;-69
2023/03/18 19:40:48;;;;;;;8.35;6.05;;;11.10;99.90;;;;;;4905989;29;20242;-72
2023/03/18 19:43:17;;;;;;;6.20;5.70;;;11.10;99.90;;;;;;4897561;29;20230;-69
2023/03/18 19:45:45;;;;;;;8.00;5.82;;;11.00;99.90;;;;;;4894685;29;20239;-69
2023/03/18 19:48:16;;;;;;;9.32;6.10;;;11.00;99.90;;;;;;4896020;29;20215;-68
2023/03/18 19:50:43;;;;;;;5.70;5.05;;;10.90;99.90;;;;;;4895652;29;20243;-67
2023/03/18 19:53:11;;;;;;;5.82;5.15;;;10.90;99.90;;;;;;4906508;29;20214;-68
2023/03/18 19:55:38;;;;;;;7.90;6.10;;;10.80;99.90;;;;;;4902007;29;20313;-70
2023/03/18 19:58:06;;;;;;;7.05;6.30;;;10.80;99.90;;;;;;4899600;29;20218;-69
2023/03/18 20:00:34;;;;;;;5.50;5.00;;;10.70;99.90;;;;;;4901146;29;20770;-68
2023/03/18 20:03:01;;;;;;;5.72;5.10;;;10.70;99.90;;;;;;4895297;29;20211;-68
2023/03/18 20:05:28;;;;;;;5.25;4.82;;;10.60;99.90;;;;;;4898133;29;20644;-69
2023/03/18 20:07:55;;;;;;;9.43;7.00;;;10.60;99.90;;;;;;4904485;29;20211;-70
2023/03/18 20:10:21;;;;;;;8.63;7.80;;;10.60;99.90;;;;;;4910423;29;20226;-69
2023/03/18 20:12:49;;;;;;;9.98;6.95;;;10.50;99.90;;;;;;4899154;29;20691;-69
2023/03/18 20:15:19;;;;;;;7.07;6.55;;;10.50;99.90;;;;;;4906437;29;20206;-68
2023/03/18 20:17:48;;;;;;;13.70;8.38;;;10.50;99.90;;;;;;4899798;29;20640;-70
2023/03/18 20:20:18;;;;;;;17.33;11.48;;;10.50;99.90;;;;;;4903960;29;20230;-70